Change Islands, Canada
Current Conditions -  °F | °C
As of 10:00 AM on Saturday 20 Dec 2014 (Local Time) from CYQX Reporting Station
Broken Clouds Broken Clouds  
Wind Chill: 20°   Ceiling: 2800
Heat Index: 28°   Visibility: 15mi
Dew Point: 25°   Wind: 9mph
Humidity: 86%   Direction: 10°N
Pressure: 30.15"   Gusts: NA
Location:  49.65°N, 54.38°W
Report Text: CYQX 201300Z 01008KT 15SM BKN028 M02/M04 A3015 RMK SC7 SLP219
Loading
Personal Weather Stations






























Interactive Weather Map New forecast layout! Learn more

10-Day Weather Forecast

Advertisements
Track Severe Weather on mobile